Terminal Aerodrome Forecast
Issued by NWS

Home | Current Version | Previous Version | Graphics & Text | Print | Product List | Glossary On
Versions: 1 2 3 4 5 6 7 8 9 10 11 12 13 14 15 16 17 18
000
FTUS43 KABR 222300
TAFATY
TAF
KATY 222333Z 2300/2324 14014G24KT P6SM BKN120
     FM230400 13023G33KT P6SM VCSH OVC080
     FM230900 14023G32KT P6SM BKN150
     FM231500 14028G38KT P6SM SCT035=

USA.gov is the U.S. government's official web portal to all federal, state and local government web resources and services.